Atlantic, Pennsylvania
Current Conditions -  °F | °C
As of 3:01 AM on Tuesday 27 Jan 2015 (Local Time) from KGKJ Reporting Station
Overcast Overcast  
Wind Chill:   Ceiling: 900
Heat Index: 17°   Visibility: 8mi
Dew Point: 13°   Wind: 7mph
Humidity: 84%   Direction: 330°NNW
Pressure: 29.82"   Gusts: NA
Location:  41.5°N, 80.33°W
Report Text: KGKJ 270801Z AUTO 33006KT 8SM BKN009 OVC016 M08/M11 A2982 RMK AO2 CIG 008V012 T10831106 TSNO
Loading
Personal Weather Stations






























Interactive Weather Map New forecast layout! Learn more

10-Day Weather Forecast

Advertisements
Track Severe Weather on mobile